sensor_id;sensor_type;location;lat;lon;timestamp;P1;durP1;ratioP1;P2;durP2;ratioP2
5507;SDS011;2776;51.046;6.772;2023-08-07T00:01:54;9.00;;;2.80;;
5507;SDS011;2776;51.046;6.772;2023-08-07T00:04:20;9.43;;;3.13;;
5507;SDS011;2776;51.046;6.772;2023-08-07T00:06:47;10.37;;;3.20;;
5507;SDS011;2776;51.046;6.772;2023-08-07T00:09:14;10.80;;;3.30;;
5507;SDS011;2776;51.046;6.772;2023-08-07T00:11:42;14.53;;;3.60;;
5507;SDS011;2776;51.046;6.772;2023-08-07T00:14:09;6.77;;;2.83;;
5507;SDS011;2776;51.046;6.772;2023-08-07T00:16:35;7.77;;;2.90;;
5507;SDS011;2776;51.046;6.772;2023-08-07T00:19:02;10.90;;;3.70;;
5507;SDS011;2776;51.046;6.772;2023-08-07T00:21:29;7.57;;;3.20;;
5507;SDS011;2776;51.046;6.772;2023-08-07T00:23:56;8.47;;;3.17;;
5507;SDS011;2776;51.046;6.772;2023-08-07T00:26:22;12.20;;;2.73;;
5507;SDS011;2776;51.046;6.772;2023-08-07T00:28:51;11.30;;;3.37;;
5507;SDS011;2776;51.046;6.772;2023-08-07T00:31:17;11.43;;;2.80;;
5507;SDS011;2776;51.046;6.772;2023-08-07T00:33:44;10.57;;;2.67;;
5507;SDS011;2776;51.046;6.772;2023-08-07T00:36:12;6.30;;;2.90;;
5507;SDS011;2776;51.046;6.772;2023-08-07T00:38:38;10.20;;;2.90;;
5507;SDS011;2776;51.046;6.772;2023-08-07T00:41:05;10.23;;;2.80;;
5507;SDS011;2776;51.046;6.772;2023-08-07T00:43:33;8.20;;;2.60;;
5507;SDS011;2776;51.046;6.772;2023-08-07T00:46:01;10.50;;;2.83;;
5507;SDS011;2776;51.046;6.772;2023-08-07T00:48:28;11.13;;;3.10;;
5507;SDS011;2776;51.046;6.772;2023-08-07T00:50:55;6.73;;;3.27;;
5507;SDS011;2776;51.046;6.772;2023-08-07T00:53:22;7.70;;;3.20;;
5507;SDS011;2776;51.046;6.772;2023-08-07T00:55:49;9.07;;;3.13;;
5507;SDS011;2776;51.046;6.772;2023-08-07T00:58:16;7.47;;;2.97;;
5507;SDS011;2776;51.046;6.772;2023-08-07T01:00:44;12.87;;;3.87;;
5507;SDS011;2776;51.046;6.772;2023-08-07T01:03:12;10.03;;;3.50;;
5507;SDS011;2776;51.046;6.772;2023-08-07T01:05:39;7.63;;;2.67;;
5507;SDS011;2776;51.046;6.772;2023-08-07T01:08:06;10.13;;;2.87;;
5507;SDS011;2776;51.046;6.772;2023-08-07T01:10:35;9.93;;;3.27;;
5507;SDS011;2776;51.046;6.772;2023-08-07T01:13:28;9.30;;;3.60;;
5507;SDS011;2776;51.046;6.772;2023-08-07T01:15:59;8.43;;;2.97;;
5507;SDS011;2776;51.046;6.772;2023-08-07T01:18:33;7.80;;;3.33;;
5507;SDS011;2776;51.046;6.772;2023-08-07T01:21:02;10.30;;;3.47;;
5507;SDS011;2776;51.046;6.772;2023-08-07T01:23:30;13.63;;;3.43;;
5507;SDS011;2776;51.046;6.772;2023-08-07T01:25:57;13.20;;;4.63;;
5507;SDS011;2776;51.046;6.772;2023-08-07T01:28:25;13.50;;;4.53;;
5507;SDS011;2776;51.046;6.772;2023-08-07T01:30:58;10.77;;;3.60;;
5507;SDS011;2776;51.046;6.772;2023-08-07T01:33:30;10.30;;;3.50;;
5507;SDS011;2776;51.046;6.772;2023-08-07T01:36:01;11.10;;;3.53;;
5507;SDS011;2776;51.046;6.772;2023-08-07T01:38:33;9.80;;;3.47;;
5507;SDS011;2776;51.046;6.772;2023-08-07T01:41:00;10.07;;;3.57;;
5507;SDS011;2776;51.046;6.772;2023-08-07T01:43:28;12.53;;;3.80;;
5507;SDS011;2776;51.046;6.772;2023-08-07T01:45:57;10.63;;;3.63;;
5507;SDS011;2776;51.046;6.772;2023-08-07T01:48:24;10.43;;;3.80;;
5507;SDS011;2776;51.046;6.772;2023-08-07T01:50:52;11.97;;;3.57;;
5507;SDS011;2776;51.046;6.772;2023-08-07T01:53:20;9.80;;;3.57;;
5507;SDS011;2776;51.046;6.772;2023-08-07T01:55:48;10.73;;;3.60;;
5507;SDS011;2776;51.046;6.772;2023-08-07T01:58:15;10.30;;;3.97;;
5507;SDS011;2776;51.046;6.772;2023-08-07T02:00:42;12.90;;;4.03;;
5507;SDS011;2776;51.046;6.772;2023-08-07T02:03:08;9.80;;;3.60;;
5507;SDS011;2776;51.046;6.772;2023-08-07T02:05:35;14.20;;;4.13;;
5507;SDS011;2776;51.046;6.772;2023-08-07T02:08:02;10.37;;;3.93;;
5507;SDS011;2776;51.046;6.772;2023-08-07T02:10:29;10.00;;;3.90;;
5507;SDS011;2776;51.046;6.772;2023-08-07T02:12:58;11.37;;;3.83;;
5507;SDS011;2776;51.046;6.772;2023-08-07T02:15:25;14.90;;;4.03;;
5507;SDS011;2776;51.046;6.772;2023-08-07T02:17:51;13.27;;;4.20;;
5507;SDS011;2776;51.046;6.772;2023-08-07T02:20:18;9.07;;;3.87;;
5507;SDS011;2776;51.046;6.772;2023-08-07T02:22:45;6.97;;;2.77;;
5507;SDS011;2776;51.046;6.772;2023-08-07T02:25:12;9.13;;;3.70;;
5507;SDS011;2776;51.046;6.772;2023-08-07T02:27:38;7.17;;;3.43;;
5507;SDS011;2776;51.046;6.772;2023-08-07T02:30:07;8.83;;;3.20;;
5507;SDS011;2776;51.046;6.772;2023-08-07T02:32:34;8.10;;;3.33;;
5507;SDS011;2776;51.046;6.772;2023-08-07T02:35:01;9.10;;;3.37;;
5507;SDS011;2776;51.046;6.772;2023-08-07T02:37:27;6.53;;;2.57;;
5507;SDS011;2776;51.046;6.772;2023-08-07T02:39:54;9.03;;;3.07;;
5507;SDS011;2776;51.046;6.772;2023-08-07T02:42:21;13.20;;;3.40;;
5507;SDS011;2776;51.046;6.772;2023-08-07T02:44:48;8.83;;;3.20;;
5507;SDS011;2776;51.046;6.772;2023-08-07T02:47:16;9.53;;;3.00;;
5507;SDS011;2776;51.046;6.772;2023-08-07T02:49:42;8.90;;;3.63;;
5507;SDS011;2776;51.046;6.772;2023-08-07T02:52:09;9.30;;;3.30;;
5507;SDS011;2776;51.046;6.772;2023-08-07T02:54:36;10.30;;;3.60;;
5507;SDS011;2776;51.046;6.772;2023-08-07T02:57:02;10.00;;;3.37;;
5507;SDS011;2776;51.046;6.772;2023-08-07T02:59:29;9.20;;;3.87;;
5507;SDS011;2776;51.046;6.772;2023-08-07T03:01:56;12.73;;;4.13;;
5507;SDS011;2776;51.046;6.772;2023-08-07T03:04:24;4.67;;;2.97;;
5507;SDS011;2776;51.046;6.772;2023-08-07T03:06:51;14.37;;;3.70;;
5507;SDS011;2776;51.046;6.772;2023-08-07T03:09:18;12.40;;;3.63;;
5507;SDS011;2776;51.046;6.772;2023-08-07T03:11:44;14.10;;;3.70;;
5507;SDS011;2776;51.046;6.772;2023-08-07T03:14:11;13.67;;;3.40;;
5507;SDS011;2776;51.046;6.772;2023-08-07T03:16:38;14.70;;;3.77;;
5507;SDS011;2776;51.046;6.772;2023-08-07T03:19:04;13.93;;;4.07;;
5507;SDS011;2776;51.046;6.772;2023-08-07T03:21:33;10.13;;;3.60;;
5507;SDS011;2776;51.046;6.772;2023-08-07T03:23:59;15.03;;;4.43;;
5507;SDS011;2776;51.046;6.772;2023-08-07T03:26:26;17.37;;;3.90;;
5507;SDS011;2776;51.046;6.772;2023-08-07T03:28:53;10.70;;;3.73;;
5507;SDS011;2776;51.046;6.772;2023-08-07T03:31:19;8.57;;;3.87;;
5507;SDS011;2776;51.046;6.772;2023-08-07T03:33:46;11.67;;;3.87;;
5507;SDS011;2776;51.046;6.772;2023-08-07T03:36:13;12.30;;;3.40;;
5507;SDS011;2776;51.046;6.772;2023-08-07T03:38:41;11.37;;;3.87;;
5507;SDS011;2776;51.046;6.772;2023-08-07T03:41:08;13.57;;;4.30;;
5507;SDS011;2776;51.046;6.772;2023-08-07T03:43:35;10.37;;;4.17;;
5507;SDS011;2776;51.046;6.772;2023-08-07T03:46:01;10.00;;;4.57;;
5507;SDS011;2776;51.046;6.772;2023-08-07T03:48:28;9.40;;;3.67;;
5507;SDS011;2776;51.046;6.772;2023-08-07T03:51:01;9.73;;;3.97;;
5507;SDS011;2776;51.046;6.772;2023-08-07T03:53:29;10.53;;;3.80;;
5507;SDS011;2776;51.046;6.772;2023-08-07T03:55:57;13.10;;;3.53;;
5507;SDS011;2776;51.046;6.772;2023-08-07T03:58:23;12.13;;;3.50;;
5507;SDS011;2776;51.046;6.772;2023-08-07T04:00:50;9.00;;;3.17;;
5507;SDS011;2776;51.046;6.772;2023-08-07T04:03:18;9.17;;;3.60;;
5507;SDS011;2776;51.046;6.772;2023-08-07T04:05:45;12.53;;;3.67;;
5507;SDS011;2776;51.046;6.772;2023-08-07T04:08:11;12.03;;;3.70;;
5507;SDS011;2776;51.046;6.772;2023-08-07T04:10:38;8.63;;;3.40;;
5507;SDS011;2776;51.046;6.772;2023-08-07T04:13:06;10.33;;;3.13;;
5507;SDS011;2776;51.046;6.772;2023-08-07T04:15:33;6.20;;;2.97;;
5507;SDS011;2776;51.046;6.772;2023-08-07T04:18:00;7.93;;;3.17;;
5507;SDS011;2776;51.046;6.772;2023-08-07T04:20:26;8.80;;;3.67;;
5507;SDS011;2776;51.046;6.772;2023-08-07T04:22:53;8.43;;;3.80;;
5507;SDS011;2776;51.046;6.772;2023-08-07T04:25:20;12.43;;;3.67;;
5507;SDS011;2776;51.046;6.772;2023-08-07T04:27:47;10.73;;;3.67;;
5507;SDS011;2776;51.046;6.772;2023-08-07T04:30:15;10.03;;;3.70;;
5507;SDS011;2776;51.046;6.772;2023-08-07T04:32:42;8.73;;;4.37;;
5507;SDS011;2776;51.046;6.772;2023-08-07T04:35:08;8.30;;;4.43;;
5507;SDS011;2776;51.046;6.772;2023-08-07T04:37:35;13.97;;;5.57;;
5507;SDS011;2776;51.046;6.772;2023-08-07T04:40:02;11.23;;;4.73;;
5507;SDS011;2776;51.046;6.772;2023-08-07T04:42:30;13.63;;;4.63;;
5507;SDS011;2776;51.046;6.772;2023-08-07T04:44:57;13.63;;;5.13;;
5507;SDS011;2776;51.046;6.772;2023-08-07T04:47:25;11.90;;;4.67;;
5507;SDS011;2776;51.046;6.772;2023-08-07T04:49:53;13.47;;;4.77;;
5507;SDS011;2776;51.046;6.772;2023-08-07T04:52:20;11.77;;;4.47;;
5507;SDS011;2776;51.046;6.772;2023-08-07T04:54:47;11.80;;;4.33;;
5507;SDS011;2776;51.046;6.772;2023-08-07T04:57:14;12.60;;;4.20;;
5507;SDS011;2776;51.046;6.772;2023-08-07T04:59:40;10.63;;;4.40;;
5507;SDS011;2776;51.046;6.772;2023-08-07T05:02:07;9.90;;;4.00;;
5507;SDS011;2776;51.046;6.772;2023-08-07T05:04:35;9.83;;;3.43;;
5507;SDS011;2776;51.046;6.772;2023-08-07T05:07:02;8.37;;;3.17;;
5507;SDS011;2776;51.046;6.772;2023-08-07T05:09:29;11.43;;;3.83;;
5507;SDS011;2776;51.046;6.772;2023-08-07T05:11:55;12.77;;;3.80;;
5507;SDS011;2776;51.046;6.772;2023-08-07T05:14:22;9.40;;;4.20;;
5507;SDS011;2776;51.046;6.772;2023-08-07T05:16:49;8.03;;;3.47;;
5507;SDS011;2776;51.046;6.772;2023-08-07T05:19:16;6.97;;;3.37;;
5507;SDS011;2776;51.046;6.772;2023-08-07T05:21:44;12.20;;;4.80;;
5507;SDS011;2776;51.046;6.772;2023-08-07T05:24:14;8.33;;;3.57;;
5507;SDS011;2776;51.046;6.772;2023-08-07T05:26:41;17.73;;;3.73;;
5507;SDS011;2776;51.046;6.772;2023-08-07T05:29:08;12.57;;;3.57;;
5507;SDS011;2776;51.046;6.772;2023-08-07T05:31:35;8.87;;;3.77;;
5507;SDS011;2776;51.046;6.772;2023-08-07T05:34:02;10.00;;;3.33;;
5507;SDS011;2776;51.046;6.772;2023-08-07T05:36:29;9.10;;;3.13;;
5507;SDS011;2776;51.046;6.772;2023-08-07T05:38:59;9.20;;;2.87;;
5507;SDS011;2776;51.046;6.772;2023-08-07T05:41:25;10.13;;;3.13;;
5507;SDS011;2776;51.046;6.772;2023-08-07T05:43:52;10.30;;;3.20;;
5507;SDS011;2776;51.046;6.772;2023-08-07T05:46:19;9.37;;;3.27;;
5507;SDS011;2776;51.046;6.772;2023-08-07T05:48:46;10.87;;;3.37;;
5507;SDS011;2776;51.046;6.772;2023-08-07T05:51:15;11.43;;;3.13;;
5507;SDS011;2776;51.046;6.772;2023-08-07T05:53:42;6.73;;;2.80;;
5507;SDS011;2776;51.046;6.772;2023-08-07T05:56:10;8.37;;;3.50;;
5507;SDS011;2776;51.046;6.772;2023-08-07T05:58:37;7.30;;;2.73;;
5507;SDS011;2776;51.046;6.772;2023-08-07T06:01:04;6.77;;;3.00;;
5507;SDS011;2776;51.046;6.772;2023-08-07T06:03:31;9.03;;;3.43;;
5507;SDS011;2776;51.046;6.772;2023-08-07T06:05:59;9.37;;;3.30;;
5507;SDS011;2776;51.046;6.772;2023-08-07T06:08:25;11.20;;;3.10;;
5507;SDS011;2776;51.046;6.772;2023-08-07T06:10:52;9.30;;;2.70;;
5507;SDS011;2776;51.046;6.772;2023-08-07T06:13:20;7.30;;;3.20;;
5507;SDS011;2776;51.046;6.772;2023-08-07T06:15:47;8.43;;;2.93;;
5507;SDS011;2776;51.046;6.772;2023-08-07T06:18:14;7.70;;;3.40;;
5507;SDS011;2776;51.046;6.772;2023-08-07T06:20:40;9.60;;;3.10;;
5507;SDS011;2776;51.046;6.772;2023-08-07T06:23:07;8.27;;;2.87;;
5507;SDS011;2776;51.046;6.772;2023-08-07T06:25:34;11.60;;;3.87;;
5507;SDS011;2776;51.046;6.772;2023-08-07T06:28:00;9.83;;;3.30;;
5507;SDS011;2776;51.046;6.772;2023-08-07T06:30:28;12.27;;;3.33;;
5507;SDS011;2776;51.046;6.772;2023-08-07T06:32:56;8.23;;;3.50;;
5507;SDS011;2776;51.046;6.772;2023-08-07T06:35:23;7.77;;;3.43;;
5507;SDS011;2776;51.046;6.772;2023-08-07T06:37:50;6.70;;;3.10;;
5507;SDS011;2776;51.046;6.772;2023-08-07T06:40:16;8.37;;;3.40;;
5507;SDS011;2776;51.046;6.772;2023-08-07T06:42:43;6.93;;;3.60;;
5507;SDS011;2776;51.046;6.772;2023-08-07T06:45:10;8.13;;;3.57;;
5507;SDS011;2776;51.046;6.772;2023-08-07T06:47:38;6.43;;;3.47;;
5507;SDS011;2776;51.046;6.772;2023-08-07T06:50:05;10.60;;;3.67;;
5507;SDS011;2776;51.046;6.772;2023-08-07T06:52:32;8.27;;;3.53;;
5507;SDS011;2776;51.046;6.772;2023-08-07T06:54:59;11.43;;;5.10;;
5507;SDS011;2776;51.046;6.772;2023-08-07T06:57:25;6.73;;;3.90;;
5507;SDS011;2776;51.046;6.772;2023-08-07T06:59:52;9.73;;;3.63;;
5507;SDS011;2776;51.046;6.772;2023-08-07T07:02:19;10.07;;;3.60;;
5507;SDS011;2776;51.046;6.772;2023-08-07T07:04:47;11.97;;;3.83;;
5507;SDS011;2776;51.046;6.772;2023-08-07T07:07:14;11.37;;;3.97;;
5507;SDS011;2776;51.046;6.772;2023-08-07T07:09:41;9.33;;;3.60;;
5507;SDS011;2776;51.046;6.772;2023-08-07T07:12:08;9.10;;;4.17;;
5507;SDS011;2776;51.046;6.772;2023-08-07T07:14:34;9.73;;;4.23;;
5507;SDS011;2776;51.046;6.772;2023-08-07T07:17:01;11.70;;;4.50;;
5507;SDS011;2776;51.046;6.772;2023-08-07T07:19:28;10.07;;;3.90;;
5507;SDS011;2776;51.046;6.772;2023-08-07T07:21:56;15.37;;;4.70;;
5507;SDS011;2776;51.046;6.772;2023-08-07T07:24:23;8.43;;;3.47;;
5507;SDS011;2776;51.046;6.772;2023-08-07T07:26:50;9.23;;;3.50;;
5507;SDS011;2776;51.046;6.772;2023-08-07T07:29:17;8.57;;;4.23;;
5507;SDS011;2776;51.046;6.772;2023-08-07T07:31:44;9.57;;;4.07;;
5507;SDS011;2776;51.046;6.772;2023-08-07T07:34:11;10.00;;;3.80;;
5507;SDS011;2776;51.046;6.772;2023-08-07T07:36:38;5.70;;;3.47;;
5507;SDS011;2776;51.046;6.772;2023-08-07T07:39:06;9.80;;;3.70;;
5507;SDS011;2776;51.046;6.772;2023-08-07T07:41:35;6.57;;;3.57;;
5507;SDS011;2776;51.046;6.772;2023-08-07T07:44:01;9.17;;;3.43;;
5507;SDS011;2776;51.046;6.772;2023-08-07T07:46:28;11.27;;;3.90;;
5507;SDS011;2776;51.046;6.772;2023-08-07T07:48:56;11.77;;;4.07;;
5507;SDS011;2776;51.046;6.772;2023-08-07T07:51:23;9.13;;;3.43;;
5507;SDS011;2776;51.046;6.772;2023-08-07T07:53:50;10.10;;;3.60;;
5507;SDS011;2776;51.046;6.772;2023-08-07T07:56:18;9.77;;;3.80;;
5507;SDS011;2776;51.046;6.772;2023-08-07T07:58:45;10.57;;;3.33;;
5507;SDS011;2776;51.046;6.772;2023-08-07T08:01:11;12.10;;;3.80;;
5507;SDS011;2776;51.046;6.772;2023-08-07T08:03:38;8.80;;;3.60;;
5507;SDS011;2776;51.046;6.772;2023-08-07T08:06:05;10.30;;;3.30;;
5507;SDS011;2776;51.046;6.772;2023-08-07T08:08:32;7.43;;;3.60;;
5507;SDS011;2776;51.046;6.772;2023-08-07T08:10:59;11.13;;;3.53;;
5507;SDS011;2776;51.046;6.772;2023-08-07T08:13:27;12.50;;;3.83;;
5507;SDS011;2776;51.046;6.772;2023-08-07T08:15:53;7.73;;;3.33;;
5507;SDS011;2776;51.046;6.772;2023-08-07T08:18:20;10.90;;;3.07;;
5507;SDS011;2776;51.046;6.772;2023-08-07T08:20:47;8.10;;;3.37;;
5507;SDS011;2776;51.046;6.772;2023-08-07T08:23:14;10.27;;;3.47;;
5507;SDS011;2776;51.046;6.772;2023-08-07T08:25:40;6.57;;;3.10;;
5507;SDS011;2776;51.046;6.772;2023-08-07T08:28:07;13.40;;;3.37;;
5507;SDS011;2776;51.046;6.772;2023-08-07T08:30:36;11.83;;;3.37;;
5507;SDS011;2776;51.046;6.772;2023-08-07T08:33:03;8.80;;;3.30;;
5507;SDS011;2776;51.046;6.772;2023-08-07T08:35:30;6.03;;;3.10;;
5507;SDS011;2776;51.046;6.772;2023-08-07T08:37:57;10.87;;;3.13;;
5507;SDS011;2776;51.046;6.772;2023-08-07T08:40:24;10.10;;;3.90;;
5507;SDS011;2776;51.046;6.772;2023-08-07T08:42:50;7.37;;;3.23;;
5507;SDS011;2776;51.046;6.772;2023-08-07T08:45:18;8.73;;;2.97;;
5507;SDS011;2776;51.046;6.772;2023-08-07T08:47:48;12.80;;;3.20;;
5507;SDS011;2776;51.046;6.772;2023-08-07T08:50:20;6.20;;;3.17;;
5507;SDS011;2776;51.046;6.772;2023-08-07T08:52:47;9.53;;;3.33;;
5507;SDS011;2776;51.046;6.772;2023-08-07T08:55:16;6.97;;;2.90;;
5507;SDS011;2776;51.046;6.772;2023-08-07T08:57:45;9.73;;;3.23;;
5507;SDS011;2776;51.046;6.772;2023-08-07T09:00:13;11.17;;;5.67;;
5507;SDS011;2776;51.046;6.772;2023-08-07T09:02:45;10.67;;;5.40;;
5507;SDS011;2776;51.046;6.772;2023-08-07T09:05:15;9.47;;;3.00;;
5507;SDS011;2776;51.046;6.772;2023-08-07T09:07:43;13.53;;;2.50;;
5507;SDS011;2776;51.046;6.772;2023-08-07T09:10:11;9.37;;;2.60;;
5507;SDS011;2776;51.046;6.772;2023-08-07T09:12:40;8.47;;;2.23;;
5507;SDS011;2776;51.046;6.772;2023-08-07T09:15:09;7.03;;;2.37;;
5507;SDS011;2776;51.046;6.772;2023-08-07T09:17:39;8.90;;;2.50;;
5507;SDS011;2776;51.046;6.772;2023-08-07T09:20:06;7.97;;;3.03;;
5507;SDS011;2776;51.046;6.772;2023-08-07T09:22:38;9.43;;;2.87;;
5507;SDS011;2776;51.046;6.772;2023-08-07T09:25:06;7.93;;;2.47;;
5507;SDS011;2776;51.046;6.772;2023-08-07T09:27:34;6.20;;;2.33;;
5507;SDS011;2776;51.046;6.772;2023-08-07T09:30:03;7.63;;;2.40;;
5507;SDS011;2776;51.046;6.772;2023-08-07T09:32:32;2.93;;;1.80;;
5507;SDS011;2776;51.046;6.772;2023-08-07T09:35:01;6.43;;;2.00;;
5507;SDS011;2776;51.046;6.772;2023-08-07T09:37:29;6.13;;;2.37;;
5507;SDS011;2776;51.046;6.772;2023-08-07T09:39:57;3.87;;;2.00;;
5507;SDS011;2776;51.046;6.772;2023-08-07T09:42:26;3.20;;;1.33;;
5507;SDS011;2776;51.046;6.772;2023-08-07T09:44:57;5.83;;;1.90;;
5507;SDS011;2776;51.046;6.772;2023-08-07T09:47:25;6.10;;;2.07;;
5507;SDS011;2776;51.046;6.772;2023-08-07T09:49:53;10.77;;;2.10;;
5507;SDS011;2776;51.046;6.772;2023-08-07T09:52:21;6.13;;;2.77;;
5507;SDS011;2776;51.046;6.772;2023-08-07T09:54:47;6.47;;;3.00;;
5507;SDS011;2776;51.046;6.772;2023-08-07T09:57:16;7.03;;;2.07;;
5507;SDS011;2776;51.046;6.772;2023-08-07T09:59:43;7.37;;;2.20;;
5507;SDS011;2776;51.046;6.772;2023-08-07T10:02:15;10.77;;;2.80;;
5507;SDS011;2776;51.046;6.772;2023-08-07T10:04:43;6.40;;;2.40;;
5507;SDS011;2776;51.046;6.772;2023-08-07T10:07:10;8.15;;;2.28;;
5507;SDS011;2776;51.046;6.772;2023-08-07T10:09:37;5.57;;;2.00;;
5507;SDS011;2776;51.046;6.772;2023-08-07T10:12:05;7.07;;;2.67;;
5507;SDS011;2776;51.046;6.772;2023-08-07T10:14:34;7.23;;;2.40;;
5507;SDS011;2776;51.046;6.772;2023-08-07T10:17:01;5.03;;;1.97;;
5507;SDS011;2776;51.046;6.772;2023-08-07T10:19:28;8.50;;;2.30;;
5507;SDS011;2776;51.046;6.772;2023-08-07T10:21:55;10.23;;;2.75;;
5507;SDS011;2776;51.046;6.772;2023-08-07T10:24:23;5.22;;;1.77;;
5507;SDS011;2776;51.046;6.772;2023-08-07T10:26:50;9.45;;;2.10;;
5507;SDS011;2776;51.046;6.772;2023-08-07T10:29:18;7.05;;;1.90;;
5507;SDS011;2776;51.046;6.772;2023-08-07T10:31:50;6.47;;;1.65;;
5507;SDS011;2776;51.046;6.772;2023-08-07T10:34:18;6.45;;;1.58;;
5507;SDS011;2776;51.046;6.772;2023-08-07T10:36:45;6.88;;;1.90;;
5507;SDS011;2776;51.046;6.772;2023-08-07T10:39:12;8.52;;;1.95;;
5507;SDS011;2776;51.046;6.772;2023-08-07T10:41:41;7.82;;;1.77;;
5507;SDS011;2776;51.046;6.772;2023-08-07T10:44:16;6.70;;;1.65;;
5507;SDS011;2776;51.046;6.772;2023-08-07T10:46:47;7.78;;;1.92;;
5507;SDS011;2776;51.046;6.772;2023-08-07T10:49:32;3.67;;;1.50;;
5507;SDS011;2776;51.046;6.772;2023-08-07T10:52:02;1.88;;;1.38;;
5507;SDS011;2776;51.046;6.772;2023-08-07T10:54:29;2.72;;;1.20;;
5507;SDS011;2776;51.046;6.772;2023-08-07T10:56:56;5.30;;;1.40;;
5507;SDS011;2776;51.046;6.772;2023-08-07T10:59:25;3.55;;;1.20;;
5507;SDS011;2776;51.046;6.772;2023-08-07T11:01:57;4.70;;;1.75;;
5507;SDS011;2776;51.046;6.772;2023-08-07T11:04:25;7.00;;;2.25;;
5507;SDS011;2776;51.046;6.772;2023-08-07T11:06:52;3.38;;;1.45;;
5507;SDS011;2776;51.046;6.772;2023-08-07T11:09:20;3.58;;;1.58;;
5507;SDS011;2776;51.046;6.772;2023-08-07T11:11:47;6.15;;;2.08;;
5507;SDS011;2776;51.046;6.772;2023-08-07T11:14:16;7.10;;;1.50;;
5507;SDS011;2776;51.046;6.772;2023-08-07T11:16:43;5.10;;;1.73;;
5507;SDS011;2776;51.046;6.772;2023-08-07T11:19:13;7.80;;;1.83;;
5507;SDS011;2776;51.046;6.772;2023-08-07T11:21:41;3.33;;;1.50;;
5507;SDS011;2776;51.046;6.772;2023-08-07T11:24:08;5.32;;;1.70;;
5507;SDS011;2776;51.046;6.772;2023-08-07T11:26:38;4.03;;;1.60;;
5507;SDS011;2776;51.046;6.772;2023-08-07T11:29:05;7.47;;;1.75;;
5507;SDS011;2776;51.046;6.772;2023-08-07T11:31:32;4.05;;;1.70;;
5507;SDS011;2776;51.046;6.772;2023-08-07T11:33:59;4.43;;;2.03;;
5507;SDS011;2776;51.046;6.772;2023-08-07T11:36:29;5.63;;;1.63;;
5507;SDS011;2776;51.046;6.772;2023-08-07T11:38:56;4.50;;;1.85;;
5507;SDS011;2776;51.046;6.772;2023-08-07T11:41:23;5.50;;;2.13;;
5507;SDS011;2776;51.046;6.772;2023-08-07T11:43:50;6.03;;;1.90;;
5507;SDS011;2776;51.046;6.772;2023-08-07T11:46:17;4.65;;;1.75;;
5507;SDS011;2776;51.046;6.772;2023-08-07T11:48:43;4.07;;;2.00;;
5507;SDS011;2776;51.046;6.772;2023-08-07T11:51:10;4.72;;;2.45;;
5507;SDS011;2776;51.046;6.772;2023-08-07T11:53:39;6.63;;;2.00;;
5507;SDS011;2776;51.046;6.772;2023-08-07T11:56:08;6.05;;;2.08;;
5507;SDS011;2776;51.046;6.772;2023-08-07T11:58:36;5.82;;;2.13;;
5507;SDS011;2776;51.046;6.772;2023-08-07T12:01:04;5.38;;;1.70;;
5507;SDS011;2776;51.046;6.772;2023-08-07T12:03:32;6.68;;;2.03;;
5507;SDS011;2776;51.046;6.772;2023-08-07T12:06:03;3.35;;;1.70;;
5507;SDS011;2776;51.046;6.772;2023-08-07T12:08:31;6.55;;;1.40;;
5507;SDS011;2776;51.046;6.772;2023-08-07T12:11:02;4.25;;;1.92;;
5507;SDS011;2776;51.046;6.772;2023-08-07T12:13:30;2.50;;;1.50;;
5507;SDS011;2776;51.046;6.772;2023-08-07T12:16:00;6.13;;;1.90;;
5507;SDS011;2776;51.046;6.772;2023-08-07T12:18:27;4.75;;;1.50;;
5507;SDS011;2776;51.046;6.772;2023-08-07T12:20:58;2.78;;;1.42;;
5507;SDS011;2776;51.046;6.772;2023-08-07T12:23:26;2.85;;;1.70;;
5507;SDS011;2776;51.046;6.772;2023-08-07T12:25:54;3.65;;;1.63;;
5507;SDS011;2776;51.046;6.772;2023-08-07T12:28:22;5.40;;;1.70;;
5507;SDS011;2776;51.046;6.772;2023-08-07T12:30:50;5.65;;;1.63;;
5507;SDS011;2776;51.046;6.772;2023-08-07T12:33:17;6.07;;;1.60;;
5507;SDS011;2776;51.046;6.772;2023-08-07T12:35:45;2.55;;;1.30;;
5507;SDS011;2776;51.046;6.772;2023-08-07T12:38:11;3.35;;;1.77;;
5507;SDS011;2776;51.046;6.772;2023-08-07T12:40:40;2.80;;;1.35;;
5507;SDS011;2776;51.046;6.772;2023-08-07T12:43:07;3.65;;;1.45;;
5507;SDS011;2776;51.046;6.772;2023-08-07T12:45:35;3.40;;;1.55;;
5507;SDS011;2776;51.046;6.772;2023-08-07T12:48:02;3.08;;;1.60;;
5507;SDS011;2776;51.046;6.772;2023-08-07T12:50:29;4.40;;;2.03;;
5507;SDS011;2776;51.046;6.772;2023-08-07T12:52:56;6.50;;;1.67;;
5507;SDS011;2776;51.046;6.772;2023-08-07T12:55:23;3.05;;;1.52;;
5507;SDS011;2776;51.046;6.772;2023-08-07T12:57:52;6.63;;;2.58;;
5507;SDS011;2776;51.046;6.772;2023-08-07T13:00:19;6.63;;;2.00;;
5507;SDS011;2776;51.046;6.772;2023-08-07T13:02:48;4.18;;;1.25;;
5507;SDS011;2776;51.046;6.772;2023-08-07T13:05:17;2.90;;;1.45;;
5507;SDS011;2776;51.046;6.772;2023-08-07T13:07:44;2.72;;;1.30;;
5507;SDS011;2776;51.046;6.772;2023-08-07T13:10:12;2.67;;;1.60;;
5507;SDS011;2776;51.046;6.772;2023-08-07T13:12:41;2.40;;;1.50;;
5507;SDS011;2776;51.046;6.772;2023-08-07T13:15:09;2.10;;;1.33;;
5507;SDS011;2776;51.046;6.772;2023-08-07T13:17:38;4.82;;;1.58;;
5507;SDS011;2776;51.046;6.772;2023-08-07T13:20:07;3.95;;;1.50;;
5507;SDS011;2776;51.046;6.772;2023-08-07T13:22:35;2.03;;;1.45;;
5507;SDS011;2776;51.046;6.772;2023-08-07T13:25:02;2.47;;;1.40;;
5507;SDS011;2776;51.046;6.772;2023-08-07T13:27:29;3.47;;;1.95;;
5507;SDS011;2776;51.046;6.772;2023-08-07T13:29:56;5.20;;;2.17;;
5507;SDS011;2776;51.046;6.772;2023-08-07T13:32:23;2.92;;;1.40;;
5507;SDS011;2776;51.046;6.772;2023-08-07T13:34:50;5.45;;;1.48;;
5507;SDS011;2776;51.046;6.772;2023-08-07T13:37:18;4.68;;;1.70;;
5507;SDS011;2776;51.046;6.772;2023-08-07T13:39:44;4.10;;;1.50;;
5507;SDS011;2776;51.046;6.772;2023-08-07T13:42:13;3.25;;;1.83;;
5507;SDS011;2776;51.046;6.772;2023-08-07T13:44:39;4.50;;;1.60;;
5507;SDS011;2776;51.046;6.772;2023-08-07T13:47:06;4.75;;;2.10;;
5507;SDS011;2776;51.046;6.772;2023-08-07T13:49:34;3.53;;;1.73;;
5507;SDS011;2776;51.046;6.772;2023-08-07T13:52:01;3.40;;;1.80;;
5507;SDS011;2776;51.046;6.772;2023-08-07T13:54:29;3.20;;;1.55;;
5507;SDS011;2776;51.046;6.772;2023-08-07T13:56:55;7.30;;;3.80;;
5507;SDS011;2776;51.046;6.772;2023-08-07T13:59:22;4.35;;;1.85;;
5507;SDS011;2776;51.046;6.772;2023-08-07T14:01:49;5.50;;;1.88;;
5507;SDS011;2776;51.046;6.772;2023-08-07T14:04:17;3.45;;;1.73;;
5507;SDS011;2776;51.046;6.772;2023-08-07T14:06:43;4.70;;;2.05;;
5507;SDS011;2776;51.046;6.772;2023-08-07T14:09:10;4.90;;;1.83;;
5507;SDS011;2776;51.046;6.772;2023-08-07T14:11:40;3.65;;;2.22;;
5507;SDS011;2776;51.046;6.772;2023-08-07T14:14:07;5.47;;;2.35;;
5507;SDS011;2776;51.046;6.772;2023-08-07T14:16:33;5.32;;;2.00;;
5507;SDS011;2776;51.046;6.772;2023-08-07T14:19:00;7.60;;;2.28;;
5507;SDS011;2776;51.046;6.772;2023-08-07T14:21:27;4.80;;;1.70;;
5507;SDS011;2776;51.046;6.772;2023-08-07T14:23:54;5.28;;;1.90;;
5507;SDS011;2776;51.046;6.772;2023-08-07T14:26:21;4.95;;;2.10;;
5507;SDS011;2776;51.046;6.772;2023-08-07T14:28:49;4.82;;;2.10;;
5507;SDS011;2776;51.046;6.772;2023-08-07T14:31:16;4.10;;;1.95;;
5507;SDS011;2776;51.046;6.772;2023-08-07T14:33:42;3.28;;;1.70;;
5507;SDS011;2776;51.046;6.772;2023-08-07T14:36:09;4.28;;;1.98;;
5507;SDS011;2776;51.046;6.772;2023-08-07T14:38:36;4.60;;;1.95;;
5507;SDS011;2776;51.046;6.772;2023-08-07T14:41:03;7.15;;;1.98;;
5507;SDS011;2776;51.046;6.772;2023-08-07T14:43:29;4.90;;;2.13;;
5507;SDS011;2776;51.046;6.772;2023-08-07T14:45:58;5.18;;;2.50;;
5507;SDS011;2776;51.046;6.772;2023-08-07T14:48:25;8.10;;;2.38;;
5507;SDS011;2776;51.046;6.772;2023-08-07T14:50:51;4.93;;;2.15;;
5507;SDS011;2776;51.046;6.772;2023-08-07T14:53:18;4.35;;;2.28;;
5507;SDS011;2776;51.046;6.772;2023-08-07T14:55:45;5.63;;;2.00;;
5507;SDS011;2776;51.046;6.772;2023-08-07T14:58:12;4.10;;;2.28;;
5507;SDS011;2776;51.046;6.772;2023-08-07T15:00:39;4.88;;;2.20;;
5507;SDS011;2776;51.046;6.772;2023-08-07T15:03:07;3.55;;;2.13;;
5507;SDS011;2776;51.046;6.772;2023-08-07T15:05:34;4.68;;;2.28;;
5507;SDS011;2776;51.046;6.772;2023-08-07T15:08:01;5.90;;;2.03;;
5507;SDS011;2776;51.046;6.772;2023-08-07T15:10:28;4.57;;;1.85;;
5507;SDS011;2776;51.046;6.772;2023-08-07T15:12:55;4.28;;;1.90;;